Time;durP1;ratioP1;P1;durP2;ratioP2;P2;SDS_P1;SDS_P2;PMS_P1;PMS_P2;Temp;Humidity;BMP_temperature;BMP_pressure;BME280_temperature;BME280_humidity;BME280_pressure;Samples;Min_cycle;Max_cycle;Signal;HPM_P1;HPM_P2
2021/12/15 00:01:13;;;;;;;40.90;30.95;;;;;;;9.75;100.00;102827.41;5250303;28;20033;-71
2021/12/15 00:03:45;;;;;;;44.22;30.88;;;;;;;9.74;100.00;102829.19;5251294;28;20480;-72
2021/12/15 00:06:18;;;;;;;44.10;30.40;;;;;;;9.78;100.00;102834.28;5250563;28;20029;-72
2021/12/15 00:08:53;;;;;;;43.30;31.60;;;;;;;9.78;100.00;102824.66;5249915;28;20024;-72
2021/12/15 00:11:32;;;;;;;42.88;31.05;;;;;;;9.78;100.00;102829.88;5250479;28;20017;-72
2021/12/15 00:14:10;;;;;;;45.50;31.63;;;;;;;9.83;100.00;102824.41;5252480;28;20024;-72
2021/12/15 00:16:43;;;;;;;42.53;31.33;;;;;;;9.75;100.00;102822.19;5251760;28;20032;-72
2021/12/15 00:19:14;;;;;;;43.92;31.25;;;;;;;9.78;100.00;102814.19;5251901;28;20060;-72
2021/12/15 00:21:46;;;;;;;45.05;32.28;;;;;;;9.70;100.00;102811.94;5249687;28;20118;-72
2021/12/15 00:24:17;;;;;;;45.17;32.08;;;;;;;9.75;100.00;102814.31;5247779;28;20074;-72
2021/12/15 00:26:48;;;;;;;45.42;31.52;;;;;;;9.74;100.00;102813.47;5252153;28;20112;-72
2021/12/15 00:29:21;;;;;;;45.05;32.90;;;;;;;9.75;100.00;102809.09;5249482;28;20085;-72
2021/12/15 00:31:52;;;;;;;42.28;31.08;;;;;;;9.73;100.00;102814.38;5251322;28;20032;-72
2021/12/15 00:34:24;;;;;;;44.22;32.45;;;;;;;9.73;100.00;102816.16;5251228;28;20391;-72
2021/12/15 00:36:55;;;;;;;44.42;31.67;;;;;;;9.75;100.00;102814.31;5251386;28;20067;-72
2021/12/15 00:39:29;;;;;;;45.83;32.13;;;;;;;9.75;100.00;102814.31;5248841;28;20036;-72
2021/12/15 00:42:00;;;;;;;44.00;31.17;;;;;;;9.74;100.00;102808.25;5251752;28;20024;-71
2021/12/15 00:44:32;;;;;;;44.25;31.52;;;;;;;9.71;100.00;102808.38;5250981;28;20027;-72
2021/12/15 00:47:04;;;;;;;44.42;31.23;;;;;;;9.73;100.00;102814.38;5251279;28;20025;-72
2021/12/15 00:49:36;;;;;;;50.13;33.42;;;;;;;9.73;100.00;102809.16;5248274;28;20067;-72
2021/12/15 00:52:08;;;;;;;42.97;31.23;;;;;;;9.78;100.00;102814.19;5248307;28;20398;-72
2021/12/15 00:54:40;;;;;;;45.33;32.20;;;;;;;9.79;100.00;102810.63;5242631;28;20021;-72
2021/12/15 00:57:11;;;;;;;43.97;31.75;;;;;;;9.77;100.00;102809.84;5244330;28;20029;-72
2021/12/15 00:59:42;;;;;;;45.80;30.90;;;;;;;9.77;100.00;102812.47;5246093;28;20112;-72
2021/12/15 01:02:14;;;;;;;43.78;29.95;;;;;;;9.79;100.00;102807.16;5248975;28;20064;-72
2021/12/15 01:04:45;;;;;;;41.95;30.52;;;;;;;9.78;100.00;102801.09;5251663;28;20077;-71
2021/12/15 01:07:17;;;;;;;41.58;29.73;;;;;;;9.74;100.00;102812.63;5252296;28;20027;-72
2021/12/15 01:09:53;;;;;;;44.40;31.38;;;;;;;9.78;100.00;102819.41;5254716;28;20029;-72
2021/12/15 01:21:08;;;;;;;42.45;29.65;;;;;;;9.80;100.00;102817.53;5255212;28;20045;-72
2021/12/15 01:23:40;;;;;;;40.70;29.73;;;;;;;9.75;100.00;102824.78;5255031;28;20367;-72
2021/12/15 01:26:14;;;;;;;42.28;29.23;;;;;;;9.79;100.00;102822.88;5254670;28;20022;-72
2021/12/15 01:28:45;;;;;;;42.53;30.30;;;;;;;9.75;100.00;102812.56;5254218;28;20116;-71
2021/12/15 01:31:17;;;;;;;46.13;31.17;;;;;;;9.78;100.00;102822.03;5255537;28;20100;-72
2021/12/15 01:33:48;;;;;;;45.00;30.42;;;;;;;9.74;100.00;102816.09;5254024;28;20029;-72
2021/12/15 01:36:19;;;;;;;42.28;29.92;;;;;;;9.75;100.00;102816.94;5254623;28;20107;-71
2021/12/15 01:38:51;;;;;;;42.70;30.83;;;;;;;9.74;100.00;102813.47;5255842;28;20497;-72
2021/12/15 01:41:24;;;;;;;43.65;29.95;;;;;;;9.81;100.00;102815.78;5256906;28;20031;-72
2021/12/15 01:46:56;;;;;;;44.85;31.33;;;;;;;9.82;100.00;102826.19;5256767;28;20142;-72
2021/12/15 01:49:39;;;;;;;43.08;29.75;;;;;;;9.85;100.00;102818.19;5256457;28;20027;-72
2021/12/15 01:52:22;;;;;;;44.17;30.33;;;;;;;9.93;100.00;102820.41;5255448;28;20033;-72
2021/12/15 01:54:57;;;;;;;43.93;30.73;;;;;;;9.83;100.00;102822.63;5251393;28;20068;-72
2021/12/15 01:57:31;;;;;;;49.58;31.88;;;;;;;9.82;100.00;102823.56;5256475;28;20267;-71
2021/12/15 02:00:21;;;;;;;47.72;30.70;;;;;;;9.96;100.00;102825.47;5254732;28;20119;-72
2021/12/15 02:02:56;;;;;;;44.45;29.83;;;;;;;9.81;100.00;102834.09;5253141;28;20036;-72
2021/12/15 02:05:30;;;;;;;43.63;30.27;;;;;;;9.82;100.00;102828.81;5229817;28;20552;-71
2021/12/15 02:08:04;;;;;;;48.33;30.75;;;;;;;9.84;100.00;102839.19;5233170;28;20051;-72
2021/12/15 02:10:39;;;;;;;44.65;30.95;;;;;;;9.82;100.00;102838.44;5231972;28;20041;-72
2021/12/15 02:13:13;;;;;;;46.85;31.00;;;;;;;9.77;100.00;102845.66;5231269;28;20033;-71
2021/12/15 02:15:52;;;;;;;47.05;30.90;;;;;;;9.83;100.00;102840.97;5231985;28;20094;-72
2021/12/15 02:18:29;;;;;;;46.58;30.77;;;;;;;9.80;100.00;102848.13;5232009;28;20021;-72
2021/12/15 02:21:05;;;;;;;47.42;30.13;;;;;;;9.82;100.00;102847.13;5232078;28;20065;-72
2021/12/15 02:23:43;;;;;;;49.92;30.20;;;;;;;9.83;100.00;102847.97;5232314;28;20056;-71
2021/12/15 02:26:22;;;;;;;48.78;31.48;;;;;;;9.85;100.00;102841.75;5233195;28;20055;-72
2021/12/15 02:28:59;;;;;;;49.72;31.90;;;;;;;9.82;100.00;102835.81;5233446;28;20114;-72
2021/12/15 02:32:16;;;;;;;49.13;30.27;;;;;;;9.82;100.00;102839.28;5232282;28;20475;-72
2021/12/15 02:34:54;;;;;;;46.50;30.48;;;;;;;9.82;100.00;102841.91;5230252;28;20316;-72
2021/12/15 02:37:24;;;;;;;46.28;30.83;;;;;;;9.84;100.00;102844.41;5234281;28;20042;-72
2021/12/15 02:40:00;;;;;;;43.63;29.92;;;;;;;9.90;100.00;102842.34;5233661;28;20037;-72
2021/12/15 02:42:40;;;;;;;49.38;32.80;;;;;;;9.87;100.00;102844.28;5232714;28;20040;-72
2021/12/15 02:45:18;;;;;;;43.95;29.17;;;;;;;9.85;100.00;102839.13;5233052;28;20356;-72
2021/12/15 02:47:50;;;;;;;45.92;30.58;;;;;;;9.76;100.00;102834.34;5232133;28;20108;-72
2021/12/15 02:50:27;;;;;;;48.60;30.80;;;;;;;9.87;100.00;102839.03;5231817;28;20021;-72
2021/12/15 02:52:59;;;;;;;46.80;31.27;;;;;;;9.82;100.00;102836.66;5232579;28;20029;-72
2021/12/15 02:55:31;;;;;;;47.15;31.77;;;;;;;9.81;100.00;102837.59;5230247;28;20029;-72
2021/12/15 02:58:02;;;;;;;46.22;29.27;;;;;;;9.81;100.00;102842.81;5230507;28;20048;-72
2021/12/15 03:00:49;;;;;;;43.33;30.52;;;;;;;9.82;100.00;102843.66;5231122;28;20033;-72
2021/12/15 03:06:11;;;;;;;42.55;28.90;;;;;;;9.82;100.00;102834.03;5252522;28;20052;-72
2021/12/15 03:17:28;;;;;;;47.13;29.10;;;;;;;9.87;100.00;102836.41;5189523;28;20399;-71
2021/12/15 03:19:59;;;;;;;46.90;31.33;;;;;;;9.83;100.00;102830.50;5253642;28;20036;-72
2021/12/15 03:22:30;;;;;;;44.85;30.15;;;;;;;9.84;100.00;102829.56;5252951;28;20102;-72
2021/12/15 03:25:03;;;;;;;46.45;30.52;;;;;;;9.88;100.00;102833.72;5251765;28;20021;-71
2021/12/15 03:33:40;;;;;;;43.80;29.75;;;;;;;9.86;100.00;102834.75;5178970;28;20043;-72
2021/12/15 03:36:23;;;;;;;45.45;28.98;;;;;;;9.91;100.00;102835.34;5246332;28;20032;-71
2021/12/15 03:38:54;;;;;;;;;;;;;;;10.45;100.00;102834.34;5253848;28;20021;-72
2021/12/15 03:41:25;;;;;;;45.53;28.03;;;;;;;9.96;100.00;102828.97;5251636;28;20277;-71
2021/12/15 03:43:57;;;;;;;44.50;29.38;;;;;;;9.95;100.00;102834.25;5253786;28;20031;-72
2021/12/15 03:46:29;;;;;;;39.97;27.25;;;;;;;9.91;100.00;102835.34;5253978;28;20021;-72
2021/12/15 03:49:00;;;;;;;43.22;28.35;;;;;;;9.93;100.00;102841.38;5251715;28;20379;-71
2021/12/15 03:51:32;;;;;;;43.80;29.25;;;;;;;9.91;100.00;102843.19;5251562;28;20378;-72
2021/12/15 03:54:05;;;;;;;42.75;27.92;;;;;;;9.89;100.00;102843.28;5251758;28;20040;-71
2021/12/15 03:56:39;;;;;;;41.97;27.60;;;;;;;9.89;100.00;102843.28;5252476;28;20115;-72
2021/12/15 03:59:11;;;;;;;44.53;28.35;;;;;;;9.89;100.00;102851.13;5251913;28;20111;-72
2021/12/15 04:01:43;;;;;;;41.47;27.88;;;;;;;9.88;100.00;102845.97;5250459;28;20390;-72
2021/12/15 04:04:14;;;;;;;39.08;26.67;;;;;;;9.90;100.00;102855.44;5251619;28;20067;-72
2021/12/15 04:06:45;;;;;;;39.03;27.25;;;;;;;9.90;100.00;102858.06;5252986;28;20041;-72
2021/12/15 04:09:17;;;;;;;39.65;28.00;;;;;;;9.90;100.00;102858.06;5249930;28;20242;-72
2021/12/15 04:11:49;;;;;;;40.33;26.02;;;;;;;9.93;100.00;102863.16;5251416;28;20028;-72
2021/12/15 04:14:23;;;;;;;40.43;26.10;;;;;;;9.97;100.00;102856.00;5251296;28;20036;-72
2021/12/15 04:17:04;;;;;;;37.70;25.50;;;;;;;9.93;100.00;102855.28;5252290;28;20276;-72
2021/12/15 04:19:36;;;;;;;39.22;25.88;;;;;;;9.93;100.00;102854.47;5234759;28;20033;-72
2021/12/15 04:22:08;;;;;;;40.20;26.05;;;;;;;9.90;100.00;102852.81;5251069;28;20393;-71
2021/12/15 04:24:39;;;;;;;39.63;26.25;;;;;;;9.90;100.00;102857.22;5250122;28;20074;-72
2021/12/15 04:27:10;;;;;;;37.72;25.67;;;;;;;9.87;100.00;102860.81;5249299;28;20029;-72
2021/12/15 04:29:44;;;;;;;38.45;26.40;;;;;;;9.90;100.00;102863.31;5250070;28;20037;-72
2021/12/15 04:32:22;;;;;;;39.13;26.60;;;;;;;9.97;100.00;102869.09;5252483;28;20033;-71
2021/12/15 04:34:54;;;;;;;38.45;25.83;;;;;;;9.89;100.00;102864.22;5251519;28;20044;-71
2021/12/15 04:37:25;;;;;;;39.05;25.92;;;;;;;9.88;100.00;102862.50;5253479;28;20080;-72
2021/12/15 04:39:57;;;;;;;41.25;26.38;;;;;;;9.88;100.00;102870.38;5252323;28;20578;-72
2021/12/15 04:42:28;;;;;;;41.03;26.52;;;;;;;9.90;100.00;102870.31;5250711;28;20041;-72
2021/12/15 04:44:59;;;;;;;39.72;26.80;;;;;;;9.90;100.00;102871.16;5250504;28;20048;-72
2021/12/15 04:47:31;;;;;;;38.47;26.15;;;;;;;9.95;100.00;102870.91;5251128;28;20049;-72
2021/12/15 04:50:07;;;;;;;37.83;24.83;;;;;;;9.99;100.00;102868.06;5232313;28;20029;-72
2021/12/15 04:52:39;;;;;;;35.03;23.88;;;;;;;9.91;100.00;102872.84;5253062;28;20498;-72
2021/12/15 04:55:11;;;;;;;33.95;25.15;;;;;;;9.91;100.00;102869.38;5252214;28;20044;-72
2021/12/15 04:57:42;;;;;;;35.35;24.33;;;;;;;9.93;100.00;102872.78;5251980;28;20449;-72
2021/12/15 05:00:22;;;;;;;36.97;25.88;;;;;;;9.92;100.00;102874.53;5249004;28;20060;-72
2021/12/15 05:02:54;;;;;;;37.85;25.38;;;;;;;9.90;100.00;102875.53;5251365;28;20041;-72
2021/12/15 05:05:28;;;;;;;37.95;24.85;;;;;;;9.90;100.00;102878.16;5249451;28;20429;-72
2021/12/15 05:08:00;;;;;;;;;;;;;;;10.43;100.00;102885.13;5251437;28;20036;-72
2021/12/15 05:10:32;;;;;;;36.30;23.45;;;;;;;9.93;100.00;102886.72;5251002;28;19916;-72
2021/12/15 05:13:05;;;;;;;36.17;24.48;;;;;;;9.98;100.00;102881.25;5251309;28;20072;-72
2021/12/15 05:15:37;;;;;;;;;;;;;;;10.47;100.00;102884.88;5252090;28;20124;-73
2021/12/15 05:18:09;;;;;;;33.05;22.90;;;;;;;9.97;100.00;102885.63;5249948;28;20065;-73
2021/12/15 05:20:46;;;;;;;33.78;22.88;;;;;;;9.99;100.00;102890.78;5249526;28;20050;-72
2021/12/15 05:23:18;;;;;;;36.40;23.85;;;;;;;9.94;100.00;102888.41;5249358;28;20086;-72
2021/12/15 05:25:49;;;;;;;37.13;25.53;;;;;;;9.92;100.00;102892.84;5252493;28;20117;-72
2021/12/15 05:28:21;;;;;;;36.65;24.65;;;;;;;9.89;100.00;102892.19;5252330;28;20119;-72
2021/12/15 05:30:53;;;;;;;35.30;24.77;;;;;;;9.92;100.00;102894.63;5251796;28;20041;-72
2021/12/15 05:33:25;;;;;;;36.70;23.53;;;;;;;9.93;100.00;102893.72;5248611;28;20040;-73
2021/12/15 05:35:57;;;;;;;34.95;23.98;;;;;;;9.92;100.00;102892.84;5251965;28;20772;-72
2021/12/15 05:38:28;;;;;;;36.28;23.35;;;;;;;9.88;100.00;102895.72;5251951;28;20114;-73
2021/12/15 05:41:00;;;;;;;36.10;24.02;;;;;;;9.91;100.00;102895.56;5251223;28;20024;-73
2021/12/15 05:43:31;;;;;;;36.90;25.75;;;;;;;9.86;100.00;102893.19;5253074;28;20029;-72
2021/12/15 05:46:02;;;;;;;36.42;24.75;;;;;;;9.86;100.00;102894.94;5251401;28;20572;-73
2021/12/15 05:48:34;;;;;;;33.97;23.15;;;;;;;9.88;100.00;102899.16;5251824;28;20048;-72
2021/12/15 05:51:05;;;;;;;37.08;24.90;;;;;;;9.88;100.00;102886.06;5251121;28;20045;-73
2021/12/15 05:53:37;;;;;;;36.85;23.85;;;;;;;9.89;100.00;102897.41;5253909;28;20107;-72
2021/12/15 05:56:08;;;;;;;41.15;25.42;;;;;;;9.90;100.00;102894.72;5238209;28;20036;-74
2021/12/15 05:58:40;;;;;;;38.67;25.08;;;;;;;9.84;100.00;102888.94;5255407;28;20033;-72
2021/12/15 06:01:11;;;;;;;38.90;25.92;;;;;;;9.84;100.00;102897.63;5254610;28;20028;-72
2021/12/15 06:03:42;;;;;;;37.80;25.10;;;;;;;9.88;100.00;102900.94;5254576;28;20124;-73
2021/12/15 06:06:14;;;;;;;39.10;26.00;;;;;;;9.85;100.00;102901.97;5254418;28;20078;-72
2021/12/15 06:08:45;;;;;;;42.53;26.50;;;;;;;9.87;100.00;102901.88;5254544;28;20106;-72
2021/12/15 06:11:17;;;;;;;41.70;25.70;;;;;;;9.85;100.00;102901.97;5254831;28;20040;-73
2021/12/15 06:13:50;;;;;;;44.45;27.90;;;;;;;9.82;100.00;102896.88;5254996;28;20102;-72
2021/12/15 06:16:22;;;;;;;;;;;;;;;10.33;100.00;102897.84;5255049;28;20037;-72
2021/12/15 06:18:53;;;;;;;41.28;25.80;;;;;;;9.90;100.00;102901.72;5255208;28;20278;-72
2021/12/15 06:21:25;;;;;;;41.67;27.02;;;;;;;9.89;100.00;102907.91;5254175;28;20273;-72
2021/12/15 06:23:56;;;;;;;43.33;27.35;;;;;;;9.89;100.00;102907.91;5255373;28;20510;-72
2021/12/15 06:26:28;;;;;;;43.22;26.67;;;;;;;9.88;100.00;102907.03;5256123;28;20386;-72
2021/12/15 06:28:59;;;;;;;44.28;26.45;;;;;;;9.91;100.00;102904.25;5253955;28;20033;-72
2021/12/15 06:31:30;;;;;;;44.83;28.50;;;;;;;9.88;100.00;102912.25;5254414;28;20097;-72
2021/12/15 06:34:02;;;;;;;47.72;28.88;;;;;;;9.90;100.00;102914.81;5254133;28;20472;-73
2021/12/15 06:36:34;;;;;;;44.95;28.92;;;;;;;9.86;100.00;102914.13;5255478;28;20083;-72
2021/12/15 06:39:06;;;;;;;47.75;29.13;;;;;;;9.89;100.00;102918.38;5255188;28;20110;-72
2021/12/15 06:41:37;;;;;;;43.58;27.35;;;;;;;9.89;100.00;102919.22;5254735;28;20058;-72
2021/12/15 06:44:10;;;;;;;47.05;27.17;;;;;;;9.92;100.00;102915.56;5252865;28;20528;-73
2021/12/15 07:00:39;;;;;;;46.60;29.50;;;;;;;9.98;100.00;102925.75;5252715;28;20036;-73
2021/12/15 07:03:11;;;;;;;44.30;29.08;;;;;;;9.92;100.00;102920.81;5252469;28;20071;-73
2021/12/15 07:05:44;;;;;;;45.13;28.80;;;;;;;9.92;100.00;102929.50;5230389;28;20025;-72
2021/12/15 07:08:16;;;;;;;45.80;28.27;;;;;;;9.90;100.00;102931.38;5251659;28;20063;-71
2021/12/15 07:10:50;;;;;;;47.80;29.75;;;;;;;9.94;100.00;102938.16;5250950;28;20048;-72
2021/12/15 07:13:25;;;;;;;45.67;28.17;;;;;;;9.92;100.00;102945.22;5251019;28;20036;-71
2021/12/15 07:16:00;;;;;;;48.97;28.30;;;;;;;9.96;100.00;102945.91;5250592;28;20037;-74
2021/12/15 07:21:21;;;;;;;51.15;30.00;;;;;;;9.98;100.00;102947.56;5254496;28;20482;-72
2021/12/15 07:23:54;;;;;;;53.10;30.40;;;;;;;9.95;100.00;102946.84;5234873;28;20078;-74
2021/12/15 07:26:25;;;;;;;49.40;29.65;;;;;;;9.92;100.00;102939.97;5251129;28;20107;-72
2021/12/15 07:28:56;;;;;;;51.00;30.80;;;;;;;9.94;100.00;102945.16;5254071;28;20525;-71
2021/12/15 07:31:28;;;;;;;50.47;30.85;;;;;;;9.97;100.00;102950.25;5248544;28;20032;-73
2021/12/15 07:33:59;;;;;;;54.40;31.13;;;;;;;9.95;100.00;102962.56;5252108;28;20032;-72
2021/12/15 07:36:30;;;;;;;58.65;30.17;;;;;;;9.95;100.00;102954.72;5251848;28;20035;-73
2021/12/15 07:39:02;;;;;;;46.75;29.10;;;;;;;9.93;100.00;102954.78;5252293;28;20106;-72
2021/12/15 07:41:47;;;;;;;50.13;30.15;;;;;;;9.93;100.00;102957.41;5250116;28;20077;-72
2021/12/15 07:44:21;;;;;;;50.15;30.80;;;;;;;9.98;100.00;102962.41;5251355;28;20174;-72
2021/12/15 07:46:53;;;;;;;51.50;30.00;;;;;;;9.96;100.00;102952.03;5249516;28;20072;-73
2021/12/15 07:49:26;;;;;;;50.60;30.15;;;;;;;9.96;100.00;102959.00;5246624;28;20021;-72
2021/12/15 07:52:03;;;;;;;57.15;31.63;;;;;;;9.92;100.00;102954.84;5244810;28;20104;-72
2021/12/15 07:54:36;;;;;;;54.28;31.65;;;;;;;9.91;100.00;102956.63;5242608;28;20498;-72
2021/12/15 07:57:16;;;;;;;54.40;30.27;;;;;;;10.00;100.00;102957.97;5241569;28;20035;-72
2021/12/15 07:59:48;;;;;;;52.30;30.30;;;;;;;9.97;100.00;102960.72;5245780;28;20087;-71
2021/12/15 08:02:19;;;;;;;52.58;31.05;;;;;;;9.93;100.00;102960.03;5240610;28;20608;-72
2021/12/15 08:04:51;;;;;;;58.25;33.75;;;;;;;9.96;100.00;102961.63;5240521;28;20052;-71
2021/12/15 08:07:22;;;;;;;54.58;31.90;;;;;;;9.96;100.00;102966.88;5246624;28;20050;-71
2021/12/15 08:09:53;;;;;;;57.63;33.95;;;;;;;9.97;100.00;102966.81;5246894;28;20074;-71
2021/12/15 08:12:27;;;;;;;55.30;33.30;;;;;;;9.98;100.00;102973.75;5244901;28;20063;-71
2021/12/15 08:14:59;;;;;;;55.90;33.67;;;;;;;9.98;100.00;102970.28;5245943;28;20033;-71
2021/12/15 08:17:30;;;;;;;54.65;31.83;;;;;;;10.02;100.00;102977.06;5246102;28;20023;-71
2021/12/15 08:20:05;;;;;;;57.20;33.17;;;;;;;10.06;100.00;102972.53;5248083;28;20430;-71
2021/12/15 08:22:38;;;;;;;52.35;33.33;;;;;;;9.99;100.00;102972.81;5248810;28;20459;-71
2021/12/15 08:25:13;;;;;;;54.38;33.05;;;;;;;10.05;100.00;102979.53;5246940;28;20132;-71
2021/12/15 08:27:45;;;;;;;51.53;32.10;;;;;;;9.99;100.00;102969.34;5251161;28;20390;-71
2021/12/15 08:30:22;;;;;;;52.85;32.72;;;;;;;10.02;100.00;102970.97;5250037;28;20033;-71
2021/12/15 08:32:57;;;;;;;57.15;31.85;;;;;;;10.07;100.00;102977.66;5249931;28;20036;-71
2021/12/15 08:35:35;;;;;;;56.38;33.58;;;;;;;10.06;100.00;102977.75;5251254;28;20025;-71
2021/12/15 08:38:09;;;;;;;52.35;31.27;;;;;;;10.05;100.00;102978.69;5252057;28;20067;-71
2021/12/15 08:40:43;;;;;;;54.03;34.80;;;;;;;10.05;100.00;102979.53;5249678;28;20119;-71
2021/12/15 08:43:15;;;;;;;54.75;33.33;;;;;;;10.05;100.00;102986.56;5251105;28;20048;-71
2021/12/15 08:45:59;;;;;;;56.70;34.42;;;;;;;10.16;100.00;102986.88;5249604;28;20256;-71
2021/12/15 08:48:31;;;;;;;54.15;32.60;;;;;;;10.08;100.00;102982.00;5252316;28;20032;-71
2021/12/15 08:51:05;;;;;;;56.10;34.45;;;;;;;10.11;100.00;102986.22;5249524;28;20475;-71
2021/12/15 08:53:39;;;;;;;54.30;34.05;;;;;;;10.08;100.00;102987.25;5250471;28;20033;-71
2021/12/15 08:56:11;;;;;;;55.58;34.00;;;;;;;10.11;100.00;102981.00;5251179;28;20029;-71
2021/12/15 08:58:42;;;;;;;56.97;34.42;;;;;;;10.13;100.00;102981.78;5250685;28;20048;-71
2021/12/15 09:01:14;;;;;;;57.33;34.90;;;;;;;10.12;100.00;102991.41;5250807;28;20021;-71
2021/12/15 09:03:45;;;;;;;55.80;33.22;;;;;;;10.13;100.00;102987.88;5250316;28;20048;-71
2021/12/15 09:06:17;;;;;;;55.78;34.70;;;;;;;10.14;100.00;102994.78;5245573;28;20453;-71
2021/12/15 09:08:48;;;;;;;53.35;34.30;;;;;;;10.17;100.00;102999.88;5245301;28;20032;-71
2021/12/15 09:11:23;;;;;;;52.55;33.55;;;;;;;10.18;100.00;102987.63;5245384;28;20100;-71
2021/12/15 09:13:57;;;;;;;53.95;33.63;;;;;;;10.22;100.00;102999.66;5244801;28;20108;-71
2021/12/15 09:16:30;;;;;;;53.60;33.42;;;;;;;10.21;100.00;103000.59;5244603;28;20033;-71
2021/12/15 09:19:04;;;;;;;51.15;32.90;;;;;;;10.23;100.00;102996.97;5248617;28;20037;-71
2021/12/15 09:21:39;;;;;;;51.10;33.03;;;;;;;10.26;100.00;103000.38;5245801;28;20031;-71
2021/12/15 09:24:13;;;;;;;54.67;33.22;;;;;;;10.28;100.00;103007.25;5245485;28;20017;-71
2021/12/15 09:26:46;;;;;;;50.70;32.60;;;;;;;10.30;100.00;103002.78;5245831;28;20070;-71
2021/12/15 09:29:17;;;;;;;53.80;34.80;;;;;;;10.32;100.00;103007.97;5248226;28;20482;-71
2021/12/15 09:31:50;;;;;;;49.58;32.45;;;;;;;10.32;100.00;103015.81;5246569;28;20311;-71
2021/12/15 09:34:21;;;;;;;50.53;31.95;;;;;;;10.37;100.00;103019.06;5246444;28;20045;-71
2021/12/15 09:36:53;;;;;;;49.42;32.17;;;;;;;10.36;100.00;103022.59;5250271;28;20546;-71
2021/12/15 09:39:25;;;;;;;53.35;33.75;;;;;;;10.35;100.00;103024.38;5252796;28;20116;-71
2021/12/15 09:41:56;;;;;;;54.50;34.20;;;;;;;10.37;100.00;103024.28;5252279;28;20033;-71
2021/12/15 09:44:28;;;;;;;49.60;34.17;;;;;;;10.36;100.00;103022.59;5250914;28;20017;-71
2021/12/15 10:11:47;;;;;;;46.65;32.03;;;;;;;10.67;100.00;103032.41;5245776;28;20510;-71
2021/12/15 10:20:02;;;;;;;50.47;35.17;;;;;;;10.68;100.00;103019.25;5246210;28;20037;-71
2021/12/15 10:22:41;;;;;;;;;;;;;;;11.23;100.00;103028.66;5250940;28;20083;-72
2021/12/15 10:25:12;;;;;;;50.28;34.45;;;;;;;10.87;100.00;103027.03;5247514;28;19956;-71
2021/12/15 10:27:50;;;;;;;48.47;33.35;;;;;;;10.90;100.00;103026.84;5250263;28;20108;-71
2021/12/15 10:30:34;;;;;;;50.40;32.80;;;;;;;11.04;100.00;103031.38;5250246;28;20017;-71
2021/12/15 10:33:20;;;;;;;47.15;33.05;;;;;;;11.06;100.00;103026.03;5247959;28;20076;-71
2021/12/15 10:36:06;;;;;;;46.25;33.92;;;;;;;11.07;100.00;103027.75;5247317;28;20036;-71
2021/12/15 10:38:44;;;;;;;47.20;33.70;;;;;;;10.95;100.00;103029.25;5248026;28;20463;-71
2021/12/15 10:41:15;;;;;;;49.53;34.05;;;;;;;10.97;100.00;103024.75;5250645;28;20024;-71
2021/12/15 10:43:56;;;;;;;44.53;32.23;;;;;;;11.03;100.00;103034.09;5247599;28;20052;-71
2021/12/15 10:46:33;;;;;;;43.88;32.05;;;;;;;11.05;100.00;103022.56;5247854;28;20764;-71
2021/12/15 10:49:07;;;;;;;45.75;33.20;;;;;;;11.06;100.00;103033.91;5249669;28;20044;-71
2021/12/15 10:51:44;;;;;;;48.42;32.78;;;;;;;10.96;100.00;103025.69;5249550;28;20017;-71
2021/12/15 10:54:34;;;;;;;44.80;32.20;;;;;;;11.02;100.00;103029.75;5249162;28;20024;-71
2021/12/15 10:57:17;;;;;;;45.67;33.45;;;;;;;11.16;100.00;103035.13;5248075;28;20041;-71
2021/12/15 10:59:52;;;;;;;47.92;33.83;;;;;;;11.12;100.00;103037.06;5249073;28;20017;-71
2021/12/15 11:02:27;;;;;;;44.13;33.35;;;;;;;11.11;100.00;103037.16;5245890;28;20029;-71
2021/12/15 11:05:05;;;;;;;45.08;32.75;;;;;;;11.20;100.00;103041.91;5249812;28;20073;-71
2021/12/15 11:07:40;;;;;;;46.78;35.72;;;;;;;11.12;100.00;103036.22;5248543;28;20040;-71
2021/12/15 11:10:14;;;;;;;48.33;33.67;;;;;;;11.20;100.00;103036.69;5248570;28;20037;-71
2021/12/15 11:12:50;;;;;;;46.05;33.75;;;;;;;11.16;100.00;103033.34;5248836;28;20027;-71
2021/12/15 11:15:27;;;;;;;44.35;33.00;;;;;;;11.20;100.00;103029.66;5252785;28;20017;-72
2021/12/15 11:18:09;;;;;;;43.70;32.70;;;;;;;11.26;100.00;103033.75;5255289;28;20031;-72
2021/12/15 11:21:00;;;;;;;43.80;32.83;;;;;;;11.25;100.00;103026.81;5253370;28;20115;-72
2021/12/15 11:23:33;;;;;;;47.20;35.13;;;;;;;11.18;100.00;103022.81;5248541;28;20128;-72
2021/12/15 11:26:11;;;;;;;47.38;33.60;;;;;;;11.30;100.00;103022.16;5248322;28;20045;-72
2021/12/15 11:28:49;;;;;;;40.80;31.73;;;;;;;11.32;100.00;103025.53;5248681;28;20028;-72
2021/12/15 11:31:27;;;;;;;43.15;31.83;;;;;;;11.33;100.00;103024.63;5248448;28;20028;-72
2021/12/15 11:34:02;;;;;;;42.47;31.38;;;;;;;11.30;100.00;103029.19;5247569;28;20038;-72
2021/12/15 11:36:44;;;;;;;45.10;33.95;;;;;;;11.32;100.00;103025.53;5249249;28;20049;-72
2021/12/15 11:39:21;;;;;;;42.22;31.50;;;;;;;11.35;100.00;103012.25;5249931;28;20028;-72
2021/12/15 11:41:54;;;;;;;41.30;31.52;;;;;;;11.38;100.00;103027.84;5247309;28;20033;-72
2021/12/15 11:44:27;;;;;;;39.95;31.13;;;;;;;11.42;100.00;103016.25;5249771;28;20020;-72
2021/12/15 11:47:02;;;;;;;40.75;31.35;;;;;;;11.47;100.00;103015.97;5249176;28;20025;-72
2021/12/15 11:49:39;;;;;;;41.40;32.05;;;;;;;11.49;100.00;103015.91;5251015;28;20029;-72
2021/12/15 11:52:14;;;;;;;39.38;31.52;;;;;;;11.49;100.00;103013.28;5250445;28;20036;-72
2021/12/15 11:54:49;;;;;;;41.03;30.75;;;;;;;11.52;100.00;103018.38;5250572;28;20039;-72
2021/12/15 11:57:23;;;;;;;40.88;31.15;;;;;;;11.55;100.00;103020.81;5251518;28;20021;-72
2021/12/15 11:59:59;;;;;;;37.67;29.52;;;;;;;11.49;100.00;103016.75;5252225;28;20039;-72
2021/12/15 12:02:33;;;;;;;40.72;28.13;;;;;;;11.49;100.00;103013.28;5253234;28;20028;-72
2021/12/15 12:05:08;;;;;;;39.20;29.90;;;;;;;11.47;100.00;103017.75;5251542;28;20043;-72
2021/12/15 12:07:43;;;;;;;38.95;29.67;;;;;;;11.52;100.00;103015.75;5250477;28;20028;-72
2021/12/15 12:10:22;;;;;;;36.75;28.65;;;;;;;11.50;100.00;103017.59;5251605;28;20017;-72
2021/12/15 12:13:09;;;;;;;37.60;29.23;;;;;;;11.58;100.00;103012.78;5249338;28;21070;-72
2021/12/15 12:15:43;;;;;;;35.92;28.58;;;;;;;11.51;100.00;103004.38;5247571;28;20217;-72
2021/12/15 12:18:18;;;;;;;34.78;28.73;;;;;;;11.49;100.00;102995.75;5249972;28;20039;-72
2021/12/15 12:20:56;;;;;;;37.58;28.33;;;;;;;11.58;100.00;102995.25;5251391;28;20652;-72
2021/12/15 12:23:30;;;;;;;34.97;27.52;;;;;;;11.58;100.00;102999.66;5247968;28;20025;-71
2021/12/15 12:26:05;;;;;;;34.33;28.33;;;;;;;11.62;100.00;103009.91;5250306;28;20258;-72
2021/12/15 12:28:41;;;;;;;34.72;27.98;;;;;;;11.66;100.00;103005.31;5252215;28;20056;-72
2021/12/15 12:31:16;;;;;;;35.10;27.70;;;;;;;11.67;100.00;103010.53;5250830;28;20383;-72
2021/12/15 12:33:49;;;;;;;35.55;28.20;;;;;;;11.63;100.00;103005.50;5252219;28;20025;-72
2021/12/15 12:36:28;;;;;;;34.13;26.52;;;;;;;11.68;100.00;102991.19;5249251;28;20025;-72
2021/12/15 12:39:09;;;;;;;32.20;26.13;;;;;;;11.70;100.00;102991.09;5249713;28;20107;-72
2021/12/15 12:41:44;;;;;;;34.70;27.02;;;;;;;11.67;100.00;102997.38;5250382;28;20193;-72
2021/12/15 12:44:20;;;;;;;35.13;27.02;;;;;;;11.63;100.00;102995.88;5250116;28;20031;-72
2021/12/15 12:47:02;;;;;;;33.00;26.58;;;;;;;11.76;100.00;102987.31;5233540;28;20037;-72
2021/12/15 13:01:15;;;;;;;29.33;23.63;;;;;;;11.81;100.00;102983.47;5167257;28;20544;-72
2021/12/15 13:03:56;;;;;;;28.15;22.70;;;;;;;11.85;100.00;102979.78;5226640;28;20045;-72
2021/12/15 13:06:40;;;;;;;29.65;22.98;;;;;;;11.91;100.00;102973.34;5255256;28;20031;-72